Time;durP1;ratioP1;P1;durP2;ratioP2;P2;SDS_P1;SDS_P2;PMS_P1;PMS_P2;Temp;Humidity;BMP_temperature;BMP_pressure;BME280_temperature;BME280_humidity;BME280_pressure;Samples;Min_cycle;Max_cycle;Signal;HPM_P1;HPM_P2
2023/08/01 00:01:46;;;;;;;4.93;4.63;;;;;;;16.55;100.00;95106.31;5001263;28;20089;-86
2023/08/01 00:04:11;;;;;;;4.63;4.22;;;;;;;16.57;100.00;95096.44;4999544;28;20510;-86
2023/08/01 00:06:37;;;;;;;4.60;4.30;;;;;;;16.43;100.00;95108.72;5000285;28;20036;-85
2023/08/01 00:09:02;;;;;;;4.78;4.47;;;;;;;16.34;100.00;95121.19;4999774;28;20147;-84
2023/08/01 00:11:28;;;;;;;4.80;4.40;;;;;;;16.34;100.00;95129.03;5000194;28;20036;-88
2023/08/01 00:13:53;;;;;;;4.57;4.15;;;;;;;16.41;100.00;95121.19;5000018;28;20046;-87
2023/08/01 00:16:18;;;;;;;4.70;4.40;;;;;;;16.28;100.00;95124.59;5000449;28;20033;-84
2023/08/01 00:18:44;;;;;;;5.50;4.60;;;;;;;16.21;100.00;95134.25;5005036;28;20124;-84
2023/08/01 00:21:11;;;;;;;5.35;4.55;;;;;;;16.24;100.00;95152.19;5006167;28;20054;-86
2023/08/01 00:23:37;;;;;;;4.88;4.57;;;;;;;16.21;100.00;95152.53;5007035;28;20057;-85
2023/08/01 00:26:02;;;;;;;4.32;4.03;;;;;;;16.39;100.00;95156.38;5003071;28;20561;-85
2023/08/01 00:28:29;;;;;;;4.70;4.40;;;;;;;16.45;100.00;95135.47;4983215;28;20049;-85
2023/08/01 00:31:02;;;;;;;4.38;4.07;;;;;;;16.56;100.00;95105.31;4979019;28;20037;-85
2023/08/01 00:33:28;;;;;;;4.93;4.60;;;;;;;16.39;100.00;95107.53;5002122;28;20022;-86
2023/08/01 00:35:54;;;;;;;4.63;4.20;;;;;;;16.36;100.00;95128.84;5004032;28;20037;-85
2023/08/01 00:38:19;;;;;;;4.78;4.38;;;;;;;16.34;100.00;95144.72;5003879;28;20509;-85
2023/08/01 00:40:45;;;;;;;4.55;4.20;;;;;;;16.36;100.00;95157.59;5004812;28;20054;-84
2023/08/01 00:43:10;;;;;;;4.65;4.35;;;;;;;16.41;100.00;95167.47;5008904;28;20037;-83
2023/08/01 00:45:36;;;;;;;4.57;4.30;;;;;;;16.37;100.00;95156.59;5040863;28;20014;-85
2023/08/01 00:48:01;;;;;;;6.90;4.20;;;;;;;16.40;100.00;95147.53;5044853;23;20081;-82
2023/08/01 00:50:27;;;;;;;4.45;4.05;;;;;;;16.40;100.00;95152.78;4981186;28;20086;-84
2023/08/01 00:52:52;;;;;;;4.68;4.38;;;;;;;16.47;100.00;95135.28;4982868;28;20445;-85
2023/08/01 00:55:18;;;;;;;4.55;4.15;;;;;;;16.44;100.00;95112.16;4981091;28;20094;-85
2023/08/01 00:57:44;;;;;;;5.00;4.50;;;;;;;16.62;100.00;95120.19;4983126;28;20034;-84
2023/08/01 01:00:10;;;;;;;4.50;4.20;;;;;;;16.52;100.00;95117.97;4981664;28;20070;-86
2023/08/01 01:02:36;;;;;;;4.07;3.75;;;;;;;16.57;100.00;95112.16;4998022;28;20518;-85
2023/08/01 01:05:02;;;;;;;4.55;4.28;;;;;;;16.70;100.00;95106.91;4983038;28;20030;-85
2023/08/01 01:07:29;;;;;;;4.28;3.95;;;;;;;16.75;100.00;95094.03;4981147;28;20483;-84
2023/08/01 01:09:54;;;;;;;4.55;4.25;;;;;;;16.73;100.00;95075.91;4982742;28;20129;-82
2023/08/01 01:12:20;;;;;;;4.72;4.28;;;;;;;16.63;100.00;95077.34;4981746;28;20463;-82
2023/08/01 01:14:45;;;;;;;4.18;3.88;;;;;;;16.71;100.00;95083.16;4981841;28;21257;-85
2023/08/01 01:17:11;;;;;;;4.43;4.13;;;;;;;16.85;100.00;95066.44;4980605;28;20423;-85
2023/08/01 01:19:37;;;;;;;3.80;3.58;;;;;;;16.96;100.00;95033.56;4968455;28;20089;-83
2023/08/01 01:22:04;;;;;;;5.03;3.80;;;;;;;17.08;100.00;95000.47;4997741;28;20030;-83
2023/08/01 01:24:30;;;;;;;4.50;4.20;;;;;;;17.08;100.00;94999.72;4967529;28;20037;-82
2023/08/01 01:26:59;;;;;;;4.00;3.70;;;;;;;16.83;100.00;95003.03;4981974;28;20026;-80
2023/08/01 01:29:26;;;;;;;4.68;4.28;;;;;;;16.64;100.00;95037.09;4979937;28;20038;-85
2023/08/01 01:31:52;;;;;;;5.13;4.18;;;;;;;16.36;100.00;95094.84;4982223;28;20065;-85
2023/08/01 01:34:18;;;;;;;3.92;3.63;;;;;;;16.45;100.00;95134.66;4964720;28;20032;-86
2023/08/01 01:36:44;;;;;;;4.47;4.18;;;;;;;16.57;100.00;95125.22;4966245;28;20042;-85
2023/08/01 01:39:09;;;;;;;4.80;4.50;;;;;;;16.40;100.00;95085.59;4981669;28;20500;-87
2023/08/01 01:41:35;;;;;;;4.72;4.00;;;;;;;16.38;100.00;95116.34;4967228;28;20116;-86
2023/08/01 01:44:00;;;;;;;6.25;4.43;;;;;;;16.47;100.00;95111.75;4982068;28;20451;-86
2023/08/01 01:46:26;;;;;;;4.78;4.28;;;;;;;16.39;100.00;95117.97;4979863;28;20921;-85
2023/08/01 01:48:51;;;;;;;5.05;4.55;;;;;;;16.44;100.00;95105.09;5018759;28;20049;-87
2023/08/01 01:51:17;;;;;;;5.00;4.63;;;;;;;16.38;100.00;95102.47;4986411;28;20529;-86
2023/08/01 01:53:42;;;;;;;5.00;4.60;;;;;;;16.35;100.00;95099.28;5004439;28;20059;-85
2023/08/01 01:56:08;;;;;;;4.60;4.18;;;;;;;16.25;100.00;95118.97;4986881;28;20032;-82
2023/08/01 01:58:33;;;;;;;4.68;4.30;;;;;;;16.18;100.00;95142.50;4987494;28;20025;-83
2023/08/01 02:00:59;;;;;;;5.30;4.70;;;;;;;16.17;100.00;95166.22;4987475;28;20034;-85
2023/08/01 02:03:24;;;;;;;4.85;4.55;;;;;;;16.18;100.00;95176.47;4986518;28;20128;-86
2023/08/01 02:05:49;;;;;;;5.40;5.00;;;;;;;16.15;100.00;95189.16;4988450;28;20639;-87
2023/08/01 02:08:15;;;;;;;4.70;4.40;;;;;;;16.34;100.00;95170.06;4987086;28;20030;-88
2023/08/01 02:10:40;;;;;;;4.45;4.13;;;;;;;16.37;100.00;95134.88;5022602;28;20407;-87
2023/08/01 02:13:06;;;;;;;5.45;5.00;;;;;;;16.20;100.00;95147.53;4985701;28;20148;-84
2023/08/01 02:15:32;;;;;;;4.97;4.30;;;;;;;16.04;100.00;95181.88;5003374;28;20497;-85
2023/08/01 02:17:58;;;;;;;5.07;4.75;;;;;;;16.07;100.00;95202.41;5020441;28;20060;-85
2023/08/01 02:20:24;;;;;;;4.38;4.07;;;;;;;16.11;100.00;95201.00;5003217;28;20026;-85
2023/08/01 02:22:50;;;;;;;4.88;4.57;;;;;;;16.24;100.00;95186.16;5021628;28;20109;-85
2023/08/01 02:25:15;;;;;;;4.60;4.25;;;;;;;16.35;100.00;95142.91;5002441;28;20162;-85
2023/08/01 02:27:41;;;;;;;4.20;3.80;;;;;;;16.24;100.00;95143.53;5003939;28;20498;-84
2023/08/01 02:30:07;;;;;;;4.80;4.15;;;;;;;16.18;100.00;95155.56;5019953;28;20053;-84
2023/08/01 02:32:32;;;;;;;4.75;4.40;;;;;;;15.89;100.00;95161.19;4986979;28;20030;-86
2023/08/01 02:34:58;;;;;;;5.20;4.40;;;;;;;15.81;100.00;95180.44;5020446;28;20538;-88
2023/08/01 02:37:23;;;;;;;4.78;4.47;;;;;;;15.78;100.00;95193.09;4987243;28;20037;-87
2023/08/01 02:39:49;;;;;;;5.30;4.85;;;;;;;15.74;100.00;95204.91;5002335;28;20029;-84
2023/08/01 02:42:14;;;;;;;4.43;4.13;;;;;;;15.78;100.00;95206.13;4986091;28;20120;-85
2023/08/01 02:44:40;;;;;;;5.20;4.68;;;;;;;15.82;100.00;95202.13;5003499;28;20037;-86
2023/08/01 02:47:06;;;;;;;9.75;4.75;;;;;;;15.73;100.00;95191.03;5019790;28;20099;-85
2023/08/01 02:49:32;;;;;;;4.50;4.20;;;;;;;15.69;100.00;95196.88;4987375;28;20501;-85
2023/08/01 02:51:58;;;;;;;4.20;3.80;;;;;;;15.93;100.00;95183.25;5001920;28;20029;-85
2023/08/01 02:54:24;;;;;;;4.45;4.07;;;;;;;15.75;100.00;95169.97;5003798;28;20029;-87
2023/08/01 02:56:49;;;;;;;4.28;3.97;;;;;;;15.65;100.00;95185.19;5002107;28;20079;-85
2023/08/01 02:59:15;;;;;;;5.10;3.65;;;;;;;15.81;100.00;95187.47;5003285;28;20025;-86
2023/08/01 03:01:40;;;;;;;4.75;4.43;;;;;;;15.76;100.00;95176.81;5020533;28;20033;-86
2023/08/01 03:04:06;;;;;;;4.75;4.35;;;;;;;15.63;100.00;95179.38;5001962;28;20056;-86
2023/08/01 03:06:32;;;;;;;5.40;4.90;;;;;;;15.35;100.00;95194.31;5003710;28;20048;-86
2023/08/01 03:08:58;;;;;;;4.97;4.20;;;;;;;15.38;100.00;95194.69;5001799;28;20025;-86
2023/08/01 03:11:23;;;;;;;6.45;4.60;;;;;;;15.36;100.00;95183.66;5003515;28;20148;-87
2023/08/01 03:13:48;;;;;;;4.60;4.30;;;;;;;15.35;100.00;95192.47;4985000;28;20287;-84
2023/08/01 03:16:14;;;;;;;5.05;4.65;;;;;;;15.31;100.00;95194.66;4986651;28;20033;-85
2023/08/01 03:18:40;;;;;;;5.45;5.05;;;;;;;15.35;100.00;95192.47;5002215;28;20033;-84
2023/08/01 03:21:06;;;;;;;5.47;5.07;;;;;;;15.22;100.00;95214.09;5002423;28;20108;-87
2023/08/01 03:23:32;;;;;;;5.00;4.60;;;;;;;15.31;100.00;95218.16;5003241;28;20704;-85
2023/08/01 03:25:57;;;;;;;5.63;5.07;;;;;;;15.24;100.00;95214.72;5001051;28;20033;-84
2023/08/01 03:28:24;;;;;;;4.25;4.05;;;;;;;15.21;100.00;95248.22;4986933;28;20025;-87
2023/08/01 03:30:50;;;;;;;5.68;4.80;;;;;;;15.08;100.00;95245.53;4985419;28;20442;-88
2023/08/01 03:35:48;;;;;;;4.57;4.28;;;;;;;15.16;100.00;95240.97;4954269;28;20051;-84
2023/08/01 03:38:14;;;;;;;4.05;3.75;;;;;;;15.11;100.00;95229.50;4971416;28;20078;-84
2023/08/01 03:40:39;;;;;;;4.40;4.00;;;;;;;15.16;100.00;95233.13;4949779;28;20109;-85
2023/08/01 03:43:06;;;;;;;5.43;4.95;;;;;;;15.25;100.00;95223.38;4963672;28;20027;-84
2023/08/01 03:45:31;;;;;;;5.45;4.38;;;;;;;15.25;100.00;95215.53;4976134;28;20038;-85
2023/08/01 03:47:57;;;;;;;9.95;4.85;;;;;;;15.14;100.00;95221.28;4981795;28;20480;-82
2023/08/01 03:50:22;;;;;;;4.32;4.03;;;;;;;15.22;100.00;95228.94;4979663;28;20476;-85
2023/08/01 03:52:48;;;;;;;5.18;4.78;;;;;;;15.34;100.00;95218.78;4971703;28;20031;-85
2023/08/01 03:55:13;;;;;;;4.63;3.83;;;;;;;15.55;100.00;95201.22;4983943;28;20399;-85
2023/08/01 03:57:39;;;;;;;4.85;4.45;;;;;;;15.71;100.00;95145.25;4984919;28;20113;-84
2023/08/01 04:00:13;;;;;;;5.15;4.05;;;;;;;15.77;100.00;95113.91;4985094;28;20422;-82
2023/08/01 04:02:40;;;;;;;4.05;3.65;;;;;;;16.05;100.00;95051.06;4969282;28;20143;-85
2023/08/01 04:05:06;;;;;;;4.05;3.75;;;;;;;16.56;100.00;94995.50;4971919;28;20034;-84
2023/08/01 04:07:32;;;;;;;5.40;4.32;;;;;;;17.24;100.00;94853.38;4982675;28;20030;-84
2023/08/01 04:09:57;;;;;;;3.90;3.60;;;;;;;18.00;100.00;94736.97;4972112;28;20022;-83
2023/08/01 04:12:23;;;;;;;2.97;2.58;;;;;;;19.09;100.00;94615.78;4983199;28;20030;-83
2023/08/01 04:14:48;;;;;;;3.13;2.83;;;;;;;19.24;100.00;94558.31;4984709;28;20064;-82
2023/08/01 04:17:13;;;;;;;3.17;2.90;;;;;;;19.06;100.00;94553.25;4984032;28;20030;-83
2023/08/01 04:19:39;;;;;;;4.55;3.47;;;;;;;18.71;100.00;94572.50;4981363;28;20034;-85
2023/08/01 04:22:04;;;;;;;4.15;3.13;;;;;;;18.53;100.00;94600.66;4973525;28;20034;-83
2023/08/01 04:24:30;;;;;;;2.58;2.47;;;;;;;19.52;100.00;94573.34;4982933;28;20032;-83
2023/08/01 04:26:56;;;;;;;2.47;2.28;;;;;;;21.18;100.00;94489.00;4978676;28;20113;-83
2023/08/01 04:29:21;;;;;;;2.90;2.55;;;;;;;22.11;100.00;94450.00;4975448;28;20471;-83
2023/08/01 04:31:47;;;;;;;3.38;2.33;;;;;;;22.91;100.00;94439.88;4984757;28;20049;-84
2023/08/01 04:34:12;;;;;;;3.05;2.53;;;;;;;22.85;100.00;94427.72;4982875;28;20104;-84
2023/08/01 04:36:38;;;;;;;2.10;2.00;;;;;;;23.21;100.00;94430.44;4984014;28;20027;-84
2023/08/01 04:39:03;;;;;;;2.40;2.20;;;;;;;23.26;100.00;94436.53;4984452;28;20026;-84
2023/08/01 04:41:29;;;;;;;4.20;2.45;;;;;;;24.28;100.00;94438.16;4982933;28;20018;-84
2023/08/01 04:43:54;;;;;;;3.00;2.80;;;;;;;24.95;100.00;94437.69;4970608;28;20555;-83
2023/08/01 04:46:20;;;;;;;2.30;2.20;;;;;;;24.17;100.00;94441.91;4982324;28;20503;-84
2023/08/01 04:48:45;;;;;;;3.72;2.60;;;;;;;25.50;99.74;94439.25;4984244;28;20030;-84
2023/08/01 04:51:10;;;;;;;4.03;2.20;;;;;;;25.15;100.00;94437.59;4982822;28;20508;-83
2023/08/01 04:53:36;;;;;;;3.60;3.08;;;;;;;25.60;98.29;94436.53;4983881;28;20468;-85
2023/08/01 04:56:01;;;;;;;3.03;2.65;;;;;;;25.82;96.90;94441.41;4983495;28;20035;-84
2023/08/01 04:58:27;;;;;;;3.60;2.80;;;;;;;26.18;91.33;94437.41;4983133;28;20026;-84
2023/08/01 05:00:52;;;;;;;2.60;2.40;;;;;;;26.34;91.30;94437.25;4982989;28;20026;-84
2023/08/01 05:03:18;;;;;;;2.53;2.33;;;;;;;27.13;86.33;94429.41;4961654;28;20027;-84
2023/08/01 05:05:43;;;;;;;3.28;3.05;;;;;;;27.82;82.51;94427.91;4967200;28;20027;-85
2023/08/01 05:08:09;;;;;;;2.47;2.28;;;;;;;27.24;85.06;94428.22;4965231;28;20034;-86
2023/08/01 05:10:34;;;;;;;2.95;2.65;;;;;;;28.70;77.83;94422.41;4964261;28;20125;-85
2023/08/01 05:12:59;;;;;;;3.10;2.90;;;;;;;28.64;75.79;94422.75;4963073;28;20104;-86
2023/08/01 05:15:25;;;;;;;5.03;2.38;;;;;;;28.98;74.50;94425.03;4963819;28;20115;-85
2023/08/01 05:17:50;;;;;;;4.38;2.55;;;;;;;29.14;72.69;94434.28;4975848;28;20034;-85
2023/08/01 05:20:16;;;;;;;3.15;2.72;;;;;;;30.09;69.06;94433.22;4982701;28;20482;-85
2023/08/01 05:22:41;;;;;;;3.30;2.90;;;;;;;30.56;63.04;94427.22;4966558;28;20035;-87
2023/08/01 05:25:07;;;;;;;3.35;2.65;;;;;;;31.28;60.38;94437.50;4969960;28;20022;-86
2023/08/01 05:27:34;;;;;;;5.70;2.72;;;;;;;31.20;60.09;94440.97;4966659;28;20057;-82
2023/08/01 05:29:59;;;;;;;6.10;2.40;;;;;;;31.92;57.91;94440.41;4981621;28;20378;-82
2023/08/01 05:32:24;;;;;;;4.47;3.10;;;;;;;32.21;55.84;94444.00;4983238;28;20916;-82
2023/08/01 05:34:50;;;;;;;12.53;2.70;;;;;;;33.56;51.69;94449.44;4964667;28;20086;-84
2023/08/01 05:37:15;;;;;;;3.37;2.87;;;;;;;32.85;52.90;94442.09;4983333;28;20538;-84
2023/08/01 05:39:41;;;;;;;4.10;2.47;;;;;;;32.80;54.43;94442.28;4983043;28;20137;-84
2023/08/01 05:42:09;;;;;;;3.57;2.67;;;;;;;33.16;52.47;94432.97;4977728;28;20096;-83
2023/08/01 05:44:35;;;;;;;3.08;2.88;;;;;;;31.35;53.78;94432.47;4974534;28;20376;-87
2023/08/01 05:47:00;;;;;;;2.90;2.70;;;;;;;33.50;49.59;94434.63;4981825;28;20038;-85
2023/08/01 05:49:25;;;;;;;3.07;2.70;;;;;;;33.99;48.50;94433.00;4981800;28;20065;-82
2023/08/01 05:51:51;;;;;;;3.07;2.87;;;;;;;33.83;47.01;94441.69;4969099;28;20038;-86
2023/08/01 05:54:16;;;;;;;3.37;3.17;;;;;;;33.54;47.93;94432.88;4962341;28;20419;-84
2023/08/01 05:56:42;;;;;;;2.90;2.63;;;;;;;34.89;46.45;94434.59;4962473;28;20046;-84
2023/08/01 05:59:07;;;;;;;3.73;2.37;;;;;;;34.23;45.46;94441.19;4962262;28;20023;-83
2023/08/01 06:01:33;;;;;;;5.73;2.83;;;;;;;35.35;43.45;94436.03;4963840;28;20039;-83
2023/08/01 06:03:59;;;;;;;6.70;2.85;;;;;;;36.02;41.77;94433.75;4978288;28;20030;-82
2023/08/01 06:06:24;;;;;;;2.63;2.43;;;;;;;36.50;40.31;94440.84;4963068;28;20534;-83
2023/08/01 06:08:51;;;;;;;5.07;2.67;;;;;;;36.67;40.36;94432.44;4943536;28;20038;-84
2023/08/01 06:11:17;;;;;;;4.30;2.35;;;;;;;36.60;40.60;94441.16;4963295;28;20910;-85
2023/08/01 06:13:42;;;;;;;2.37;2.17;;;;;;;35.75;43.23;94440.69;4939183;28;20024;-86
2023/08/01 06:16:08;;;;;;;2.47;2.27;;;;;;;35.52;41.95;94440.38;4961151;28;20030;-86
2023/08/01 06:18:33;;;;;;;3.70;2.60;;;;;;;35.58;41.13;94441.75;4943564;28;20810;-83
2023/08/01 06:20:59;;;;;;;3.07;2.30;;;;;;;35.26;41.63;94435.38;4961544;28;20027;-83
2023/08/01 06:23:24;;;;;;;3.23;2.10;;;;;;;35.59;40.26;94432.53;4963424;28;20499;-83
2023/08/01 06:25:49;;;;;;;2.13;2.03;;;;;;;35.36;40.99;94428.72;4944077;28;20050;-87
2023/08/01 06:28:15;;;;;;;3.35;2.60;;;;;;;36.16;38.34;94429.53;4946488;28;20039;-86
2023/08/01 06:30:40;;;;;;;2.85;2.40;;;;;;;36.23;39.37;94432.44;4962155;28;20023;-89
2023/08/01 06:33:06;;;;;;;2.60;2.40;;;;;;;33.38;43.13;94427.28;4963492;28;20026;-83
2023/08/01 06:35:32;;;;;;;2.40;2.20;;;;;;;31.55;49.78;94426.56;4944291;28;20504;-86
2023/08/01 06:37:57;;;;;;;2.85;2.50;;;;;;;31.42;52.08;94430.13;4962767;28;20160;-84
2023/08/01 06:40:23;;;;;;;2.42;2.22;;;;;;;31.18;53.49;94424.41;4962786;28;20026;-82
2023/08/01 06:42:48;;;;;;;2.53;2.30;;;;;;;31.31;52.22;94415.47;4933436;28;20035;-87
2023/08/01 06:45:14;;;;;;;5.83;2.37;;;;;;;32.14;51.30;94418.81;4957465;28;20038;-84
2023/08/01 06:47:39;;;;;;;3.90;2.10;;;;;;;34.56;42.54;94423.06;4956255;28;20031;-83
2023/08/01 06:50:06;;;;;;;2.27;2.00;;;;;;;35.96;39.79;94417.78;4949832;28;20023;-79
2023/08/01 06:52:31;;;;;;;1.83;1.73;;;;;;;36.81;39.43;94419.28;4955919;28;20062;-82
2023/08/01 06:54:57;;;;;;;2.33;2.13;;;;;;;35.47;38.86;94410.19;4959370;28;20497;-81
2023/08/01 06:57:22;;;;;;;2.47;2.13;;;;;;;37.04;37.29;94411.34;4970524;28;20037;-85
2023/08/01 06:59:48;;;;;;;2.20;2.08;;;;;;;36.63;38.56;94399.16;4964661;28;20054;-82
2023/08/01 07:02:13;;;;;;;4.88;2.33;;;;;;;35.23;39.89;94405.63;4945774;28;20113;-83
2023/08/01 07:04:39;;;;;;;2.78;2.38;;;;;;;32.00;44.06;94407.44;4961017;28;20054;-79
2023/08/01 07:07:04;;;;;;;3.50;2.25;;;;;;;30.59;49.33;94393.72;4965122;28;20066;-79
2023/08/01 07:09:30;;;;;;;4.72;2.38;;;;;;;30.58;50.31;94390.25;4964246;28;20066;-80
2023/08/01 07:11:55;;;;;;;6.55;2.75;;;;;;;30.49;52.40;94400.13;4962207;28;20086;-85
2023/08/01 07:14:21;;;;;;;2.63;2.42;;;;;;;30.70;53.74;94395.78;4961638;28;20452;-80
2023/08/01 07:16:46;;;;;;;4.70;2.70;;;;;;;29.91;55.51;94394.13;4975530;28;20027;-83
2023/08/01 07:19:12;;;;;;;2.80;2.40;;;;;;;29.83;55.80;94398.31;4960986;28;20039;-84
2023/08/01 07:21:37;;;;;;;3.55;2.40;;;;;;;29.71;55.46;94396.19;4959967;28;20063;-83
2023/08/01 07:24:04;;;;;;;3.83;2.63;;;;;;;30.19;53.74;94396.34;4965978;28;20038;-82
2023/08/01 07:26:30;;;;;;;6.30;2.47;;;;;;;29.61;54.53;94391.06;4941514;28;20031;-85
2023/08/01 07:28:55;;;;;;;2.78;1.85;;;;;;;30.02;53.82;94385.53;4962411;28;20111;-80
2023/08/01 07:31:21;;;;;;;5.85;2.20;;;;;;;29.57;54.23;94395.44;4960227;28;20118;-83
2023/08/01 07:33:47;;;;;;;6.65;3.03;;;;;;;30.23;56.18;94393.84;4944037;28;20082;-85
2023/08/01 07:36:12;;;;;;;3.20;2.17;;;;;;;29.95;54.06;94381.75;4958085;28;20060;-84
2023/08/01 07:38:38;;;;;;;2.63;1.98;;;;;;;29.98;55.11;94384.59;4942770;28;20480;-87
2023/08/01 07:41:04;;;;;;;2.50;2.00;;;;;;;29.56;53.91;94387.75;4976108;28;20444;-83
2023/08/01 07:43:30;;;;;;;3.88;2.35;;;;;;;29.72;56.38;94376.41;4940698;28;20594;-83
2023/08/01 07:45:57;;;;;;;3.45;2.25;;;;;;;29.82;52.95;94375.38;4943928;28;20058;-84
2023/08/01 07:48:22;;;;;;;2.28;2.08;;;;;;;29.66;57.27;94374.16;4957694;28;20062;-86
2023/08/01 07:50:48;;;;;;;2.30;2.10;;;;;;;30.09;55.32;94380.56;4945106;28;20480;-83
2023/08/01 08:05:44;;;;;;;9.27;2.40;;;;;;;28.19;56.77;94365.78;5091305;27;20404;-80
2023/08/01 08:08:10;;;;;;;6.30;2.90;;;;;;;29.32;57.19;94371.22;5078368;28;20044;-81
2023/08/01 08:10:35;;;;;;;6.88;2.20;;;;;;;29.29;56.13;94372.59;5055370;28;20497;-80
2023/08/01 08:13:01;;;;;;;2.40;2.20;;;;;;;29.69;55.82;94363.66;5045194;28;20036;-84
2023/08/01 08:15:27;;;;;;;3.08;2.20;;;;;;;29.52;56.27;94360.84;5065620;28;20033;-81
2023/08/01 08:17:52;;;;;;;2.83;2.38;;;;;;;30.12;56.04;94357.78;5064625;28;20032;-81
2023/08/01 08:20:18;;;;;;;17.65;3.28;;;;;;;29.73;54.88;94361.16;5068544;28;20044;-81
2023/08/01 08:22:43;;;;;;;8.13;2.78;;;;;;;29.60;56.46;94354.81;5053908;28;20055;-80
2023/08/01 08:25:09;;;;;;;3.72;2.35;;;;;;;28.89;53.79;94357.47;5074792;28;20039;-80
2023/08/01 08:27:34;;;;;;;2.80;2.50;;;;;;;28.32;58.17;94348.97;5061158;28;20025;-80
2023/08/01 08:30:00;;;;;;;2.92;2.30;;;;;;;29.72;58.44;94351.56;5059492;28;20035;-82
2023/08/01 08:32:25;;;;;;;5.57;2.63;;;;;;;28.63;54.11;94352.66;5069919;28;20528;-81
2023/08/01 08:34:50;;;;;;;4.93;2.70;;;;;;;28.65;55.94;94347.00;5076547;28;20040;-80
2023/08/01 08:37:16;;;;;;;42.22;5.60;;;;;;;29.10;58.73;94342.59;5071899;28;20064;-80
2023/08/01 08:39:41;;;;;;;6.68;2.60;;;;;;;29.76;59.16;94329.25;5055449;28;20950;-81
2023/08/01 08:42:07;;;;;;;10.68;3.15;;;;;;;30.08;58.11;94344.25;5071692;28;20036;-83
2023/08/01 08:44:35;;;;;;;2.30;2.10;;;;;;;29.78;56.04;94337.78;5075041;28;20035;-81
2023/08/01 08:47:02;;;;;;;;;;;;;;;29.81;55.61;94326.47;5067852;28;20029;-83
2023/08/01 08:49:27;;;;;;;2.40;2.20;;;;;;;30.00;54.18;94322.81;5071318;28;19966;-82
2023/08/01 08:51:55;;;;;;;6.55;2.60;;;;;;;29.39;55.80;94328.88;5057755;28;20473;-82
2023/08/01 08:54:21;;;;;;;5.03;2.20;;;;;;;29.91;57.90;94325.47;5070294;28;20037;-81
2023/08/01 08:56:46;;;;;;;2.63;2.15;;;;;;;29.83;52.60;94322.75;5055991;28;20033;-80
2023/08/01 08:59:12;;;;;;;2.70;2.50;;;;;;;29.46;52.84;94321.22;5054226;28;20082;-84
2023/08/01 09:01:39;;;;;;;2.35;2.20;;;;;;;29.35;54.30;94320.69;5054079;28;20123;-83
2023/08/01 09:04:05;;;;;;;2.90;2.60;;;;;;;30.04;56.98;94315.78;5036668;28;20553;-82
2023/08/01 09:06:45;;;;;;;2.42;2.22;;;;;;;29.27;55.38;94314.19;5041130;28;20131;-82
2023/08/01 09:09:14;;;;;;;2.80;2.10;;;;;;;29.31;52.65;94308.25;5054284;28;20328;-82
2023/08/01 09:11:47;;;;;;;2.30;2.10;;;;;;;29.53;53.31;94310.91;5034080;28;20050;-80
2023/08/01 09:14:13;;;;;;;2.08;1.95;;;;;;;28.61;52.62;94311.34;5043965;28;20105;-82
2023/08/01 09:16:40;;;;;;;2.05;1.95;;;;;;;28.73;52.36;94312.47;5042027;28;20478;-83
2023/08/01 09:19:06;;;;;;;2.30;2.20;;;;;;;28.72;52.43;94305.53;5040155;28;20025;-81
2023/08/01 09:21:35;;;;;;;2.35;2.15;;;;;;;29.04;51.53;94299.22;5039713;28;20033;-79
2023/08/01 09:24:11;;;;;;;2.22;2.03;;;;;;;29.05;50.05;94300.81;5034887;28;20029;-80
2023/08/01 09:26:37;;;;;;;2.20;2.10;;;;;;;29.50;49.53;94285.63;5023155;28;20028;-80
2023/08/01 09:29:02;;;;;;;2.55;1.92;;;;;;;29.49;49.21;94297.38;5039902;28;20854;-80
2023/08/01 09:31:30;;;;;;;1.90;1.80;;;;;;;29.67;51.59;94293.72;5039166;28;20029;-83
2023/08/01 09:33:55;;;;;;;2.85;2.35;;;;;;;29.02;55.59;94292.63;5039670;28;20053;-81
2023/08/01 09:36:22;;;;;;;6.80;2.65;;;;;;;28.53;53.77;94286.19;5021711;28;20040;-83
2023/08/01 09:38:47;;;;;;;9.02;3.65;;;;;;;29.31;56.77;94285.03;5037993;28;20107;-82
2023/08/01 09:41:17;;;;;;;3.67;2.28;;;;;;;29.81;51.42;94282.94;5039627;28;20131;-82
2023/08/01 09:43:44;;;;;;;3.58;2.30;;;;;;;29.78;51.86;94278.22;5032851;28;20478;-82
2023/08/01 09:46:11;;;;;;;2.50;2.30;;;;;;;29.17;53.93;94279.72;5031817;28;20447;-80
2023/08/01 09:48:37;;;;;;;5.28;2.55;;;;;;;29.60;55.92;94276.56;5032662;28;20132;-80
2023/08/01 09:51:13;;;;;;;2.53;2.25;;;;;;;29.69;54.43;94278.19;5025849;28;20117;-81
2023/08/01 09:53:54;;;;;;;2.50;2.30;;;;;;;29.08;49.62;94272.75;5023972;28;20078;-80
2023/08/01 09:56:25;;;;;;;2.70;2.50;;;;;;;29.55;54.30;94264.13;5019822;28;20067;-80
2023/08/01 09:58:51;;;;;;;2.50;2.30;;;;;;;29.74;52.88;94259.34;5037873;28;20410;-81
2023/08/01 10:01:19;;;;;;;2.05;1.75;;;;;;;29.66;51.22;94251.31;5029134;28;20533;-82
2023/08/01 10:03:49;;;;;;;2.05;1.88;;;;;;;29.65;49.25;94242.50;5033811;28;20063;-80
2023/08/01 10:06:21;;;;;;;2.10;2.00;;;;;;;29.01;49.38;94248.34;5039602;28;20891;-84
2023/08/01 10:08:47;;;;;;;1.45;1.35;;;;;;;29.41;48.82;94254.63;5028683;28;20482;-81
2023/08/01 10:11:21;;;;;;;1.80;1.67;;;;;;;29.43;48.64;94247.09;5030190;28;20048;-84
2023/08/01 10:13:47;;;;;;;2.20;2.00;;;;;;;28.76;49.09;94245.19;5056453;28;20035;-81
2023/08/01 10:16:14;;;;;;;2.00;1.80;;;;;;;28.49;49.51;94241.78;5034972;28;20036;-83
2023/08/01 10:18:40;;;;;;;2.22;2.00;;;;;;;28.87;50.56;94226.28;5017025;28;20133;-80
2023/08/01 10:21:07;;;;;;;3.08;2.08;;;;;;;29.19;51.16;94224.16;5036193;28;20120;-79
2023/08/01 10:23:33;;;;;;;3.10;2.28;;;;;;;28.42;51.19;94222.72;5038690;28;20139;-80
2023/08/01 10:26:00;;;;;;;1.70;1.60;;;;;;;28.80;50.96;94228.59;5016725;28;20029;-79
2023/08/01 10:28:37;;;;;;;1.85;1.75;;;;;;;28.29;51.51;94234.22;5031457;28;20043;-82
2023/08/01 10:31:13;;;;;;;2.53;2.33;;;;;;;27.71;51.27;94232.13;5039418;28;20459;-80
2023/08/01 10:33:40;;;;;;;2.50;2.30;;;;;;;28.19;52.48;94222.66;5052546;28;20568;-80
2023/08/01 10:36:15;;;;;;;2.63;2.22;;;;;;;28.31;50.02;94222.19;5038326;28;20029;-81
2023/08/01 10:38:55;;;;;;;2.30;2.20;;;;;;;28.81;54.42;94220.28;5037393;28;20029;-79
2023/08/01 10:41:32;;;;;;;2.72;2.25;;;;;;;29.45;52.12;94210.97;5038735;28;20025;-81
2023/08/01 10:44:27;;;;;;;2.30;2.20;;;;;;;29.46;50.24;94209.91;5038580;28;20029;-80
2023/08/01 10:47:04;;;;;;;2.30;2.20;;;;;;;29.57;50.09;94199.75;5028535;28;20889;-81
2023/08/01 10:49:44;;;;;;;3.22;2.40;;;;;;;29.13;49.36;94200.56;5038194;28;20049;-79
2023/08/01 10:52:20;;;;;;;4.78;2.53;;;;;;;29.32;52.34;94197.72;5035129;28;20028;-79
2023/08/01 10:54:46;;;;;;;2.05;1.95;;;;;;;29.57;51.32;94192.50;5038324;28;20139;-79
2023/08/01 10:57:18;;;;;;;4.75;2.20;;;;;;;29.67;51.41;94188.75;5038054;28;20028;-80
2023/08/01 10:59:44;;;;;;;2.20;2.05;;;;;;;29.48;49.87;94185.53;5030564;28;20155;-80
2023/08/01 11:02:09;;;;;;;3.97;2.05;;;;;;;29.72;50.31;94178.75;5021524;28;20060;-81
2023/08/01 11:04:34;;;;;;;2.40;2.15;;;;;;;29.54;50.03;94185.09;5021246;28;20053;-81
2023/08/01 11:07:01;;;;;;;2.80;2.28;;;;;;;29.41;49.43;94183.31;5040466;28;20024;-80
2023/08/01 11:09:28;;;;;;;2.30;2.20;;;;;;;29.47;50.52;94171.44;5038303;28;20025;-79
2023/08/01 11:11:55;;;;;;;2.40;2.20;;;;;;;29.61;49.28;94177.44;5037426;28;20131;-81
2023/08/01 11:14:22;;;;;;;3.35;2.20;;;;;;;29.00;50.25;94167.53;5038297;28;20021;-80
2023/08/01 11:16:48;;;;;;;2.55;2.25;;;;;;;29.95;51.41;94165.34;5038126;28;20029;-80
2023/08/01 11:19:20;;;;;;;3.72;1.92;;;;;;;29.63;49.05;94169.94;5034768;28;20051;-79
2023/08/01 11:21:46;;;;;;;2.25;2.15;;;;;;;29.84;50.99;94161.38;5036584;28;20402;-82
2023/08/01 11:24:11;;;;;;;2.38;2.17;;;;;;;29.61;49.67;94161.41;5028839;28;20033;-81
2023/08/01 11:26:45;;;;;;;3.58;2.28;;;;;;;29.88;53.22;94160.44;5035878;28;20044;-81
2023/08/01 11:29:11;;;;;;;2.55;2.15;;;;;;;30.02;52.00;94160.31;5029798;28;20033;-80
2023/08/01 11:31:37;;;;;;;2.13;2.03;;;;;;;30.37;51.54;94155.81;5005753;28;20122;-79
2023/08/01 11:34:03;;;;;;;2.17;2.08;;;;;;;30.29;52.20;94152.00;5017986;28;20045;-79
2023/08/01 11:36:29;;;;;;;2.88;2.60;;;;;;;29.90;49.01;94149.44;5035281;28;20021;-82
2023/08/01 11:38:57;;;;;;;2.78;2.58;;;;;;;29.36;50.08;94148.75;5037600;28;20031;-80
2023/08/01 11:41:23;;;;;;;2.90;2.58;;;;;;;29.64;50.24;94141.31;5038135;28;20033;-80